sensor_id;sensor_type;location;lat;lon;timestamp;pressure;altitude;pressure_sealevel;temperature
22269;BMP280;11303;50.772;19.670;2023-07-13T00:01:47;98591.09;;;18.63
22269;BMP280;11303;50.772;19.670;2023-07-13T00:03:53;98586.94;;;18.62
22269;BMP280;11303;50.772;19.670;2023-07-13T00:05:59;98592.63;;;18.60
22269;BMP280;11303;50.772;19.670;2023-07-13T00:08:01;98599.03;;;18.59
22269;BMP280;11303;50.772;19.670;2023-07-13T00:10:03;98597.19;;;18.56
22269;BMP280;11303;50.772;19.670;2023-07-13T00:12:22;98600.97;;;18.55
22269;BMP280;11303;50.772;19.670;2023-07-13T00:14:26;98597.97;;;18.53
22269;BMP280;11303;50.772;19.670;2023-07-13T00:16:28;98600.59;;;18.53
22269;BMP280;11303;50.772;19.670;2023-07-13T00:18:29;98587.88;;;18.52
22269;BMP280;11303;50.772;19.670;2023-07-13T00:20:31;98590.88;;;18.50
22269;BMP280;11303;50.772;19.670;2023-07-13T00:22:34;98597.66;;;18.51
22269;BMP280;11303;50.772;19.670;2023-07-13T00:24:36;98604.00;;;18.54
22269;BMP280;11303;50.772;19.670;2023-07-13T00:26:41;98598.38;;;18.52
22269;BMP280;11303;50.772;19.670;2023-07-13T00:28:46;98595.41;;;18.50
22269;BMP280;11303;50.772;19.670;2023-07-13T00:30:47;98601.41;;;18.50
22269;BMP280;11303;50.772;19.670;2023-07-13T00:32:49;98612.28;;;18.52
22269;BMP280;11303;50.772;19.670;2023-07-13T00:35:05;98626.94;;;18.53
22269;BMP280;11303;50.772;19.670;2023-07-13T00:37:06;98631.06;;;18.54
22269;BMP280;11303;50.772;19.670;2023-07-13T00:39:09;98624.22;;;18.60
22269;BMP280;11303;50.772;19.670;2023-07-13T00:41:10;98624.53;;;18.66
22269;BMP280;11303;50.772;19.670;2023-07-13T00:43:15;98633.09;;;18.70
22269;BMP280;11303;50.772;19.670;2023-07-13T00:47:18;98640.06;;;18.80
22269;BMP280;11303;50.772;19.670;2023-07-13T00:49:21;98641.53;;;18.85
22269;BMP280;11303;50.772;19.670;2023-07-13T00:51:28;98632.84;;;18.88
22269;BMP280;11303;50.772;19.670;2023-07-13T00:53:32;98628.25;;;18.92
22269;BMP280;11303;50.772;19.670;2023-07-13T00:55:35;98627.78;;;18.97
22269;BMP280;11303;50.772;19.670;2023-07-13T00:57:37;98635.22;;;19.02
22269;BMP280;11303;50.772;19.670;2023-07-13T00:59:40;98629.16;;;19.06
22269;BMP280;11303;50.772;19.670;2023-07-13T01:01:43;98624.56;;;19.10
22269;BMP280;11303;50.772;19.670;2023-07-13T01:03:45;98622.63;;;19.14
22269;BMP280;11303;50.772;19.670;2023-07-13T01:05:49;98616.97;;;19.15
22269;BMP280;11303;50.772;19.670;2023-07-13T01:07:52;98617.72;;;19.16
22269;BMP280;11303;50.772;19.670;2023-07-13T01:09:54;98618.03;;;19.18
22269;BMP280;11303;50.772;19.670;2023-07-13T01:11:55;98612.03;;;19.17
22269;BMP280;11303;50.772;19.670;2023-07-13T01:13:57;98611.31;;;19.17
22269;BMP280;11303;50.772;19.670;2023-07-13T01:16:02;98607.09;;;19.19
22269;BMP280;11303;50.772;19.670;2023-07-13T01:18:07;98616.81;;;19.22
22269;BMP280;11303;50.772;19.670;2023-07-13T01:20:09;98610.41;;;19.23
22269;BMP280;11303;50.772;19.670;2023-07-13T01:22:16;98616.03;;;19.26
22269;BMP280;11303;50.772;19.670;2023-07-13T01:24:19;98614.47;;;19.28
22269;BMP280;11303;50.772;19.670;2023-07-13T01:26:21;98621.91;;;19.33
22269;BMP280;11303;50.772;19.670;2023-07-13T01:28:23;98618.84;;;19.38
22269;BMP280;11303;50.772;19.670;2023-07-13T01:30:28;98620.25;;;19.43
22269;BMP280;11303;50.772;19.670;2023-07-13T01:32:30;98624.72;;;19.46
22269;BMP280;11303;50.772;19.670;2023-07-13T01:34:36;98625.78;;;19.49
22269;BMP280;11303;50.772;19.670;2023-07-13T01:36:38;98624.97;;;19.52
22269;BMP280;11303;50.772;19.670;2023-07-13T01:38:40;98626.78;;;19.55
22269;BMP280;11303;50.772;19.670;2023-07-13T01:40:45;98633.91;;;19.58
22269;BMP280;11303;50.772;19.670;2023-07-13T01:42:47;98632.75;;;19.59
22269;BMP280;11303;50.772;19.670;2023-07-13T01:44:48;98627.81;;;19.61
22269;BMP280;11303;50.772;19.670;2023-07-13T01:46:50;98630.44;;;19.61
22269;BMP280;11303;50.772;19.670;2023-07-13T01:48:51;98636.09;;;19.63
22269;BMP280;11303;50.772;19.670;2023-07-13T01:50:53;98631.97;;;19.62
22269;BMP280;11303;50.772;19.670;2023-07-13T01:52:55;98640.94;;;19.64
22269;BMP280;11303;50.772;19.670;2023-07-13T01:54:56;98635.66;;;19.64
22269;BMP280;11303;50.772;19.670;2023-07-13T01:56:58;98636.00;;;19.67
22269;BMP280;11303;50.772;19.670;2023-07-13T01:59:00;98636.00;;;19.67
22269;BMP280;11303;50.772;19.670;2023-07-13T02:01:01;98638.66;;;19.67
22269;BMP280;11303;50.772;19.670;2023-07-13T02:03:03;98634.50;;;19.65
22269;BMP280;11303;50.772;19.670;2023-07-13T02:05:06;98636.00;;;19.67
22269;BMP280;11303;50.772;19.670;2023-07-13T02:07:09;98632.25;;;19.64
22269;BMP280;11303;50.772;19.670;2023-07-13T02:09:10;98632.69;;;19.62
22269;BMP280;11303;50.772;19.670;2023-07-13T02:11:12;98624.16;;;19.55
22269;BMP280;11303;50.772;19.670;2023-07-13T02:13:14;98618.28;;;19.47
22269;BMP280;11303;50.772;19.670;2023-07-13T02:15:16;98614.31;;;19.39
22269;BMP280;11303;50.772;19.670;2023-07-13T02:17:18;98624.63;;;19.30
22269;BMP280;11303;50.772;19.670;2023-07-13T02:19:19;98625.91;;;19.21
22269;BMP280;11303;50.772;19.670;2023-07-13T02:21:22;98619.59;;;19.15
22269;BMP280;11303;50.772;19.670;2023-07-13T02:23:24;98617.41;;;19.10
22269;BMP280;11303;50.772;19.670;2023-07-13T02:25:26;98614.03;;;19.10
22269;BMP280;11303;50.772;19.670;2023-07-13T02:27:28;98615.16;;;19.09
22269;BMP280;11303;50.772;19.670;2023-07-13T02:29:29;98616.34;;;19.08
22269;BMP280;11303;50.772;19.670;2023-07-13T02:31:31;98618.22;;;19.07
22269;BMP280;11303;50.772;19.670;2023-07-13T02:33:33;98615.97;;;19.06
22269;BMP280;11303;50.772;19.670;2023-07-13T02:35:34;98609.66;;;19.03
22269;BMP280;11303;50.772;19.670;2023-07-13T02:37:36;98623.97;;;19.02
22269;BMP280;11303;50.772;19.670;2023-07-13T02:39:38;98624.03;;;18.98
22269;BMP280;11303;50.772;19.670;2023-07-13T02:41:39;98621.78;;;18.97
22269;BMP280;11303;50.772;19.670;2023-07-13T02:43:41;98630.81;;;18.96
22269;BMP280;11303;50.772;19.670;2023-07-13T02:45:44;98627.09;;;18.93
22269;BMP280;11303;50.772;19.670;2023-07-13T02:47:45;98624.53;;;18.90
22269;BMP280;11303;50.772;19.670;2023-07-13T02:49:47;98627.88;;;18.90
22269;BMP280;11303;50.772;19.670;2023-07-13T02:51:49;98627.16;;;18.90
22269;BMP280;11303;50.772;19.670;2023-07-13T02:53:50;98624.84;;;18.92
22269;BMP280;11303;50.772;19.670;2023-07-13T02:55:52;98625.22;;;18.94
22269;BMP280;11303;50.772;19.670;2023-07-13T02:57:54;98624.47;;;18.93
22269;BMP280;11303;50.772;19.670;2023-07-13T02:59:55;98618.47;;;18.93
22269;BMP280;11303;50.772;19.670;2023-07-13T03:01:57;98614.69;;;18.94
22269;BMP280;11303;50.772;19.670;2023-07-13T03:03:59;98616.91;;;18.95
22269;BMP280;11303;50.772;19.670;2023-07-13T03:06:02;98613.88;;;18.97
22269;BMP280;11303;50.772;19.670;2023-07-13T03:08:06;98595.06;;;18.98
22269;BMP280;11303;50.772;19.670;2023-07-13T03:10:08;98601.38;;;19.01
22269;BMP280;11303;50.772;19.670;2023-07-13T03:12:10;98586.34;;;19.01
22269;BMP280;11303;50.772;19.670;2023-07-13T03:14:12;98596.06;;;19.05
22269;BMP280;11303;50.772;19.670;2023-07-13T03:16:15;98591.16;;;19.07
22269;BMP280;11303;50.772;19.670;2023-07-13T03:18:20;98590.31;;;19.10
22269;BMP280;11303;50.772;19.670;2023-07-13T03:20:22;98589.13;;;19.14
22269;BMP280;11303;50.772;19.670;2023-07-13T03:22:23;98588.72;;;19.16
22269;BMP280;11303;50.772;19.670;2023-07-13T03:24:25;98599.97;;;19.20
22269;BMP280;11303;50.772;19.670;2023-07-13T03:26:27;98614.16;;;19.26
22269;BMP280;11303;50.772;19.670;2023-07-13T03:28:29;98627.25;;;19.30
22269;BMP280;11303;50.772;19.670;2023-07-13T03:30:30;98622.69;;;19.34
22269;BMP280;11303;50.772;19.670;2023-07-13T03:32:32;98633.13;;;19.37
22269;BMP280;11303;50.772;19.670;2023-07-13T03:34:34;98628.56;;;19.41
22269;BMP280;11303;50.772;19.670;2023-07-13T03:36:36;98629.97;;;19.46
22269;BMP280;11303;50.772;19.670;2023-07-13T03:38:37;98639.75;;;19.49
22269;BMP280;11303;50.772;19.670;2023-07-13T03:40:39;98643.06;;;19.50
22269;BMP280;11303;50.772;19.670;2023-07-13T03:42:40;98656.25;;;19.50
22269;BMP280;11303;50.772;19.670;2023-07-13T03:44:42;98657.16;;;19.43
22269;BMP280;11303;50.772;19.670;2023-07-13T03:46:47;98665.47;;;19.41
22269;BMP280;11303;50.772;19.670;2023-07-13T03:48:49;98663.63;;;19.38
22269;BMP280;11303;50.772;19.670;2023-07-13T03:50:50;98674.91;;;19.39
22269;BMP280;11303;50.772;19.670;2023-07-13T03:52:52;98668.53;;;19.36
22269;BMP280;11303;50.772;19.670;2023-07-13T03:54:53;98664.16;;;19.30
22269;BMP280;11303;50.772;19.670;2023-07-13T03:56:55;98657.44;;;19.25
22269;BMP280;11303;50.772;19.670;2023-07-13T03:58:57;98653.31;;;19.24
22269;BMP280;11303;50.772;19.670;2023-07-13T04:00:59;98652.25;;;19.21
22269;BMP280;11303;50.772;19.670;2023-07-13T04:03:02;98652.28;;;19.18
22269;BMP280;11303;50.772;19.670;2023-07-13T04:05:04;98651.63;;;19.14
22269;BMP280;11303;50.772;19.670;2023-07-13T04:07:06;98641.94;;;19.07
22269;BMP280;11303;50.772;19.670;2023-07-13T04:09:09;98640.22;;;18.97
22269;BMP280;11303;50.772;19.670;2023-07-13T04:11:11;98636.16;;;18.92
22269;BMP280;11303;50.772;19.670;2023-07-13T04:13:12;98640.00;;;18.88
22269;BMP280;11303;50.772;19.670;2023-07-13T04:15:14;98641.56;;;18.81
22269;BMP280;11303;50.772;19.670;2023-07-13T04:17:16;98639.06;;;18.74
22269;BMP280;11303;50.772;19.670;2023-07-13T04:19:17;98644.06;;;18.65
22269;BMP280;11303;50.772;19.670;2023-07-13T04:21:19;98630.56;;;18.63
22269;BMP280;11303;50.772;19.670;2023-07-13T04:23:20;98637.31;;;18.64
22269;BMP280;11303;50.772;19.670;2023-07-13T04:25:22;98636.56;;;18.64
22269;BMP280;11303;50.772;19.670;2023-07-13T04:27:24;98640.75;;;18.61
22269;BMP280;11303;50.772;19.670;2023-07-13T04:29:26;98635.25;;;18.52
22269;BMP280;11303;50.772;19.670;2023-07-13T04:31:28;98632.72;;;18.45
22269;BMP280;11303;50.772;19.670;2023-07-13T04:33:30;98637.66;;;18.39
22269;BMP280;11303;50.772;19.670;2023-07-13T04:35:32;98632.84;;;18.34
22269;BMP280;11303;50.772;19.670;2023-07-13T04:37:33;98637.78;;;18.32
22269;BMP280;11303;50.772;19.670;2023-07-13T04:39:36;98645.63;;;18.35
22269;BMP280;11303;50.772;19.670;2023-07-13T04:41:38;98639.09;;;18.44
22269;BMP280;11303;50.772;19.670;2023-07-13T04:43:40;98636.25;;;18.58
22269;BMP280;11303;50.772;19.670;2023-07-13T04:45:42;98643.59;;;18.74
22269;BMP280;11303;50.772;19.670;2023-07-13T04:47:43;98657.53;;;18.94
22269;BMP280;11303;50.772;19.670;2023-07-13T04:49:45;98648.88;;;18.97
22269;BMP280;11303;50.772;19.670;2023-07-13T04:51:47;98650.53;;;19.11
22269;BMP280;11303;50.772;19.670;2023-07-13T04:53:48;98655.22;;;19.23
22269;BMP280;11303;50.772;19.670;2023-07-13T04:55:55;98650.28;;;19.49
22269;BMP280;11303;50.772;19.670;2023-07-13T04:57:58;98651.16;;;19.62
22269;BMP280;11303;50.772;19.670;2023-07-13T05:00:04;98652.84;;;19.93
22269;BMP280;11303;50.772;19.670;2023-07-13T05:02:06;98654.56;;;20.19
22269;BMP280;11303;50.772;19.670;2023-07-13T05:04:08;98647.50;;;20.33
22269;BMP280;11303;50.772;19.670;2023-07-13T05:06:10;98636.09;;;20.36
22269;BMP280;11303;50.772;19.670;2023-07-13T05:08:11;98640.56;;;20.39
22269;BMP280;11303;50.772;19.670;2023-07-13T05:10:13;98645.44;;;20.40
22269;BMP280;11303;50.772;19.670;2023-07-13T05:12:15;98635.28;;;20.39
22269;BMP280;11303;50.772;19.670;2023-07-13T05:14:16;98649.13;;;20.43
22269;BMP280;11303;50.772;19.670;2023-07-13T05:16:19;98638.56;;;20.43
22269;BMP280;11303;50.772;19.670;2023-07-13T05:18:20;98629.09;;;20.45
22269;BMP280;11303;50.772;19.670;2023-07-13T05:20:22;98624.97;;;20.44
22269;BMP280;11303;50.772;19.670;2023-07-13T05:22:24;98619.38;;;20.59
22269;BMP280;11303;50.772;19.670;2023-07-13T05:24:26;98615.63;;;20.89
22269;BMP280;11303;50.772;19.670;2023-07-13T05:26:27;98623.25;;;21.16
22269;BMP280;11303;50.772;19.670;2023-07-13T05:28:30;98633.56;;;21.40
22269;BMP280;11303;50.772;19.670;2023-07-13T05:30:33;98629.81;;;21.53
22269;BMP280;11303;50.772;19.670;2023-07-13T05:32:35;98628.81;;;21.64
22269;BMP280;11303;50.772;19.670;2023-07-13T05:34:37;98623.50;;;21.76
22269;BMP280;11303;50.772;19.670;2023-07-13T05:36:40;98621.28;;;21.88
22269;BMP280;11303;50.772;19.670;2023-07-13T05:38:42;98636.53;;;22.09
22269;BMP280;11303;50.772;19.670;2023-07-13T05:40:44;98634.91;;;22.98
22269;BMP280;11303;50.772;19.670;2023-07-13T05:42:46;98639.59;;;24.09
22269;BMP280;11303;50.772;19.670;2023-07-13T05:44:47;98628.72;;;24.99
22269;BMP280;11303;50.772;19.670;2023-07-13T05:46:49;98625.41;;;25.32
22269;BMP280;11303;50.772;19.670;2023-07-13T05:48:51;98624.16;;;25.42
22269;BMP280;11303;50.772;19.670;2023-07-13T05:50:52;98633.94;;;25.79
22269;BMP280;11303;50.772;19.670;2023-07-13T05:52:54;98629.31;;;25.88
22269;BMP280;11303;50.772;19.670;2023-07-13T05:54:56;98632.16;;;26.09
22269;BMP280;11303;50.772;19.670;2023-07-13T05:56:57;98626.00;;;26.03
22269;BMP280;11303;50.772;19.670;2023-07-13T05:58:59;98622.56;;;26.02
22269;BMP280;11303;50.772;19.670;2023-07-13T06:01:06;98614.59;;;25.78
22269;BMP280;11303;50.772;19.670;2023-07-13T06:03:08;98614.16;;;25.80
22269;BMP280;11303;50.772;19.670;2023-07-13T06:05:10;98619.84;;;25.87
22269;BMP280;11303;50.772;19.670;2023-07-13T06:07:11;98618.91;;;25.99
22269;BMP280;11303;50.772;19.670;2023-07-13T06:09:13;98621.03;;;26.10
22269;BMP280;11303;50.772;19.670;2023-07-13T06:11:17;98613.06;;;26.10
22269;BMP280;11303;50.772;19.670;2023-07-13T06:13:19;98609.66;;;26.10
22269;BMP280;11303;50.772;19.670;2023-07-13T06:15:21;98596.38;;;26.00
22269;BMP280;11303;50.772;19.670;2023-07-13T06:17:22;98601.00;;;25.67
22269;BMP280;11303;50.772;19.670;2023-07-13T06:19:24;98583.06;;;25.10
22269;BMP280;11303;50.772;19.670;2023-07-13T06:21:26;98581.03;;;24.68
22269;BMP280;11303;50.772;19.670;2023-07-13T06:23:28;98576.78;;;24.61
22269;BMP280;11303;50.772;19.670;2023-07-13T06:25:29;98588.59;;;24.70
22269;BMP280;11303;50.772;19.670;2023-07-13T06:27:31;98586.94;;;25.00
22269;BMP280;11303;50.772;19.670;2023-07-13T06:29:33;98595.28;;;25.26
22269;BMP280;11303;50.772;19.670;2023-07-13T06:31:34;98605.44;;;25.70
22269;BMP280;11303;50.772;19.670;2023-07-13T06:33:37;98613.00;;;25.95
22269;BMP280;11303;50.772;19.670;2023-07-13T06:35:39;98621.31;;;25.88
22269;BMP280;11303;50.772;19.670;2023-07-13T06:37:40;98625.34;;;26.08
22269;BMP280;11303;50.772;19.670;2023-07-13T06:39:42;98617.66;;;26.49
22269;BMP280;11303;50.772;19.670;2023-07-13T06:41:44;98617.03;;;26.54
22269;BMP280;11303;50.772;19.670;2023-07-13T06:43:45;98596.47;;;26.15
22269;BMP280;11303;50.772;19.670;2023-07-13T06:45:48;98606.97;;;26.34
22269;BMP280;11303;50.772;19.670;2023-07-13T06:47:51;98605.22;;;26.31
22269;BMP280;11303;50.772;19.670;2023-07-13T06:49:53;98610.03;;;26.17
22269;BMP280;11303;50.772;19.670;2023-07-13T06:51:54;98610.41;;;25.86
22269;BMP280;11303;50.772;19.670;2023-07-13T06:53:56;98604.22;;;25.47
22269;BMP280;11303;50.772;19.670;2023-07-13T06:55:58;98616.25;;;25.99
22269;BMP280;11303;50.772;19.670;2023-07-13T06:57:59;98611.69;;;26.54
22269;BMP280;11303;50.772;19.670;2023-07-13T07:00:01;98610.63;;;27.05
22269;BMP280;11303;50.772;19.670;2023-07-13T07:02:03;98621.25;;;27.34
22269;BMP280;11303;50.772;19.670;2023-07-13T07:04:05;98621.56;;;27.77
22269;BMP280;11303;50.772;19.670;2023-07-13T07:06:13;98614.84;;;27.82
22269;BMP280;11303;50.772;19.670;2023-07-13T07:08:16;98618.59;;;28.11
22269;BMP280;11303;50.772;19.670;2023-07-13T07:10:19;98615.03;;;27.78
22269;BMP280;11303;50.772;19.670;2023-07-13T07:12:20;98618.91;;;27.98
22269;BMP280;11303;50.772;19.670;2023-07-13T07:14:23;98627.44;;;28.22
22269;BMP280;11303;50.772;19.670;2023-07-13T07:16:25;98627.59;;;28.65
22269;BMP280;11303;50.772;19.670;2023-07-13T07:18:27;98634.25;;;29.07
22269;BMP280;11303;50.772;19.670;2023-07-13T07:20:28;98632.16;;;29.23
22269;BMP280;11303;50.772;19.670;2023-07-13T07:22:32;98626.91;;;29.34
22269;BMP280;11303;50.772;19.670;2023-07-13T07:24:33;98632.66;;;29.21
22269;BMP280;11303;50.772;19.670;2023-07-13T07:26:35;98630.72;;;28.58
22269;BMP280;11303;50.772;19.670;2023-07-13T07:28:56;98623.75;;;27.99
22269;BMP280;11303;50.772;19.670;2023-07-13T07:31:01;98623.31;;;27.80
22269;BMP280;11303;50.772;19.670;2023-07-13T07:33:06;98624.38;;;27.89
22269;BMP280;11303;50.772;19.670;2023-07-13T07:35:07;98628.28;;;28.34
22269;BMP280;11303;50.772;19.670;2023-07-13T07:37:11;98624.31;;;28.50
22269;BMP280;11303;50.772;19.670;2023-07-13T07:39:16;98623.41;;;28.59
22269;BMP280;11303;50.772;19.670;2023-07-13T07:41:18;98618.44;;;28.46
22269;BMP280;11303;50.772;19.670;2023-07-13T07:43:22;98629.63;;;28.24
22269;BMP280;11303;50.772;19.670;2023-07-13T07:45:26;98630.66;;;28.26
22269;BMP280;11303;50.772;19.670;2023-07-13T07:47:28;98633.56;;;28.28
22269;BMP280;11303;50.772;19.670;2023-07-13T07:49:30;98627.31;;;27.91
22269;BMP280;11303;50.772;19.670;2023-07-13T07:51:31;98634.84;;;27.72
22269;BMP280;11303;50.772;19.670;2023-07-13T07:53:33;98639.75;;;27.94
22269;BMP280;11303;50.772;19.670;2023-07-13T07:55:35;98646.72;;;28.12
22269;BMP280;11303;50.772;19.670;2023-07-13T07:57:40;98644.25;;;28.49
22269;BMP280;11303;50.772;19.670;2023-07-13T07:59:44;98642.03;;;28.27
22269;BMP280;11303;50.772;19.670;2023-07-13T08:01:49;98650.06;;;28.27
22269;BMP280;11303;50.772;19.670;2023-07-13T08:03:54;98657.97;;;28.88
22269;BMP280;11303;50.772;19.670;2023-07-13T08:05:59;98654.03;;;28.84
22269;BMP280;11303;50.772;19.670;2023-07-13T08:08:21;98669.34;;;28.57
22269;BMP280;11303;50.772;19.670;2023-07-13T08:10:22;98669.94;;;28.20
22269;BMP280;11303;50.772;19.670;2023-07-13T08:12:24;98676.28;;;28.23
22269;BMP280;11303;50.772;19.670;2023-07-13T08:14:29;98678.25;;;28.48
22269;BMP280;11303;50.772;19.670;2023-07-13T08:16:50;98675.09;;;28.50
22269;BMP280;11303;50.772;19.670;2023-07-13T08:18:52;98676.09;;;28.53
22269;BMP280;11303;50.772;19.670;2023-07-13T08:20:54;98668.50;;;28.45
22269;BMP280;11303;50.772;19.670;2023-07-13T08:22:58;98670.84;;;28.38
22269;BMP280;11303;50.772;19.670;2023-07-13T08:25:00;98658.66;;;28.11
22269;BMP280;11303;50.772;19.670;2023-07-13T08:27:02;98654.22;;;27.87
22269;BMP280;11303;50.772;19.670;2023-07-13T08:29:03;98663.31;;;26.95
22269;BMP280;11303;50.772;19.670;2023-07-13T08:31:06;98657.31;;;26.08
22269;BMP280;11303;50.772;19.670;2023-07-13T08:33:09;98654.94;;;25.86
22269;BMP280;11303;50.772;19.670;2023-07-13T08:35:10;98652.72;;;25.42
22269;BMP280;11303;50.772;19.670;2023-07-13T08:37:12;98652.97;;;25.53
22269;BMP280;11303;50.772;19.670;2023-07-13T08:39:14;98652.53;;;25.54
22269;BMP280;11303;50.772;19.670;2023-07-13T08:41:17;98658.97;;;25.20
22269;BMP280;11303;50.772;19.670;2023-07-13T08:43:25;98661.97;;;24.76
22269;BMP280;11303;50.772;19.670;2023-07-13T08:45:33;98659.59;;;23.92
22269;BMP280;11303;50.772;19.670;2023-07-13T08:47:42;98662.19;;;23.51
22269;BMP280;11303;50.772;19.670;2023-07-13T08:49:45;98662.66;;;23.50
22269;BMP280;11303;50.772;19.670;2023-07-13T08:51:51;98654.31;;;23.39
22269;BMP280;11303;50.772;19.670;2023-07-13T08:53:59;98653.75;;;23.22
22269;BMP280;11303;50.772;19.670;2023-07-13T08:56:02;98655.09;;;23.26
22269;BMP280;11303;50.772;19.670;2023-07-13T08:58:12;98656.50;;;23.40
22269;BMP280;11303;50.772;19.670;2023-07-13T09:00:14;98658.47;;;23.40
22269;BMP280;11303;50.772;19.670;2023-07-13T09:02:26;98664.06;;;23.20
22269;BMP280;11303;50.772;19.670;2023-07-13T09:04:43;98658.50;;;23.05
22269;BMP280;11303;50.772;19.670;2023-07-13T09:06:59;98667.09;;;23.09
22269;BMP280;11303;50.772;19.670;2023-07-13T09:09:10;98659.56;;;23.07
22269;BMP280;11303;50.772;19.670;2023-07-13T09:15:56;98670.66;;;22.20
22269;BMP280;11303;50.772;19.670;2023-07-13T09:20:37;98678.25;;;21.50
22269;BMP280;11303;50.772;19.670;2023-07-13T09:22:41;98682.34;;;21.39
22269;BMP280;11303;50.772;19.670;2023-07-13T09:24:57;98677.41;;;21.24
22269;BMP280;11303;50.772;19.670;2023-07-13T09:27:09;98687.72;;;21.19
22269;BMP280;11303;50.772;19.670;2023-07-13T09:29:27;98692.88;;;21.09
22269;BMP280;11303;50.772;19.670;2023-07-13T09:31:37;98691.25;;;20.99
22269;BMP280;11303;50.772;19.670;2023-07-13T09:33:40;98694.44;;;20.90
22269;BMP280;11303;50.772;19.670;2023-07-13T09:35:42;98697.59;;;20.85
22269;BMP280;11303;50.772;19.670;2023-07-13T09:37:45;98693.72;;;20.73
22269;BMP280;11303;50.772;19.670;2023-07-13T09:39:48;98693.63;;;20.61
22269;BMP280;11303;50.772;19.670;2023-07-13T09:42:12;98702.50;;;20.34
22269;BMP280;11303;50.772;19.670;2023-07-13T09:44:26;98700.34;;;20.09
22269;BMP280;11303;50.772;19.670;2023-07-13T09:46:29;98702.06;;;19.79
22269;BMP280;11303;50.772;19.670;2023-07-13T09:48:36;98705.66;;;19.45
22269;BMP280;11303;50.772;19.670;2023-07-13T09:50:38;98710.72;;;19.13
22269;BMP280;11303;50.772;19.670;2023-07-13T09:52:47;98710.56;;;18.96
22269;BMP280;11303;50.772;19.670;2023-07-13T09:54:51;98711.97;;;18.77
22269;BMP280;11303;50.772;19.670;2023-07-13T09:56:59;98726.81;;;18.64
22269;BMP280;11303;50.772;19.670;2023-07-13T09:59:01;98734.84;;;18.53
22269;BMP280;11303;50.772;19.670;2023-07-13T10:01:04;98729.69;;;18.46
22269;BMP280;11303;50.772;19.670;2023-07-13T10:03:18;98744.81;;;18.38
22269;BMP280;11303;50.772;19.670;2023-07-13T10:05:20;98747.50;;;18.35
22269;BMP280;11303;50.772;19.670;2023-07-13T10:07:24;98758.03;;;18.31
22269;BMP280;11303;50.772;19.670;2023-07-13T10:09:30;98762.34;;;18.18
22269;BMP280;11303;50.772;19.670;2023-07-13T10:11:34;98762.78;;;18.09
22269;BMP280;11303;50.772;19.670;2023-07-13T10:13:41;98766.19;;;18.06
22269;BMP280;11303;50.772;19.670;2023-07-13T10:15:43;98769.66;;;18.00
22269;BMP280;11303;50.772;19.670;2023-07-13T10:17:46;98777.16;;;18.01
22269;BMP280;11303;50.772;19.670;2023-07-13T10:19:48;98771.09;;;18.04
22269;BMP280;11303;50.772;19.670;2023-07-13T10:21:55;98787.00;;;17.90
22269;BMP280;11303;50.772;19.670;2023-07-13T10:24:12;98788.16;;;17.85
22269;BMP280;11303;50.772;19.670;2023-07-13T10:26:24;98790.09;;;17.81
22269;BMP280;11303;50.772;19.670;2023-07-13T10:28:30;98783.41;;;17.69
22269;BMP280;11303;50.772;19.670;2023-07-13T10:30:35;98787.63;;;17.63
22269;BMP280;11303;50.772;19.670;2023-07-13T10:32:40;98806.75;;;17.60
22269;BMP280;11303;50.772;19.670;2023-07-13T10:34:45;98799.66;;;17.57
22269;BMP280;11303;50.772;19.670;2023-07-13T10:36:48;98818.09;;;17.50
22269;BMP280;11303;50.772;19.670;2023-07-13T10:38:51;98829.00;;;17.52
22269;BMP280;11303;50.772;19.670;2023-07-13T10:40:58;98832.44;;;17.34
22269;BMP280;11303;50.772;19.670;2023-07-13T10:43:09;98843.41;;;17.22
22269;BMP280;11303;50.772;19.670;2023-07-13T10:45:19;98830.00;;;16.99
22269;BMP280;11303;50.772;19.670;2023-07-13T10:47:22;98840.19;;;16.86
22269;BMP280;11303;50.772;19.670;2023-07-13T10:49:24;98852.56;;;16.78
22269;BMP280;11303;50.772;19.670;2023-07-13T11:06:37;98867.44;;;15.20
22269;BMP280;11303;50.772;19.670;2023-07-13T11:10:52;98853.81;;;14.85
22269;BMP280;11303;50.772;19.670;2023-07-13T11:12:54;98861.88;;;14.66
22269;BMP280;11303;50.772;19.670;2023-07-13T11:16:57;98882.13;;;14.73
22269;BMP280;11303;50.772;19.670;2023-07-13T11:21:18;98872.94;;;14.93
22269;BMP280;11303;50.772;19.670;2023-07-13T11:23:31;98874.09;;;15.03
22269;BMP280;11303;50.772;19.670;2023-07-13T11:25:35;98872.28;;;15.14
22269;BMP280;11303;50.772;19.670;2023-07-13T11:27:45;98873.78;;;15.19
22269;BMP280;11303;50.772;19.670;2023-07-13T11:29:48;98881.69;;;15.29
22269;BMP280;11303;50.772;19.670;2023-07-13T11:31:55;98883.94;;;15.35
22269;BMP280;11303;50.772;19.670;2023-07-13T11:33:57;98882.81;;;15.28
22269;BMP280;11303;50.772;19.670;2023-07-13T11:36:03;98889.94;;;15.28
22269;BMP280;11303;50.772;19.670;2023-07-13T11:40:26;98892.94;;;15.34
22269;BMP280;11303;50.772;19.670;2023-07-13T11:42:30;98886.56;;;15.35
22269;BMP280;11303;50.772;19.670;2023-07-13T11:44:33;98895.56;;;15.41
22269;BMP280;11303;50.772;19.670;2023-07-13T11:46:35;98898.56;;;15.43
22269;BMP280;11303;50.772;19.670;2023-07-13T11:48:37;98913.56;;;15.42
22269;BMP280;11303;50.772;19.670;2023-07-13T11:50:39;98918.09;;;15.60
22269;BMP280;11303;50.772;19.670;2023-07-13T11:52:41;98911.03;;;15.67
22269;BMP280;11303;50.772;19.670;2023-07-13T11:54:48;98915.13;;;15.61
22269;BMP280;11303;50.772;19.670;2023-07-13T11:57:02;98903.94;;;15.79
22269;BMP280;11303;50.772;19.670;2023-07-13T11:59:10;98897.53;;;15.65
22269;BMP280;11303;50.772;19.670;2023-07-13T12:01:20;98897.94;;;15.82
22269;BMP280;11303;50.772;19.670;2023-07-13T12:03:24;98902.09;;;15.97
22269;BMP280;11303;50.772;19.670;2023-07-13T12:05:26;98890.50;;;15.95
22269;BMP280;11303;50.772;19.670;2023-07-13T12:07:31;98902.81;;;15.83
22269;BMP280;11303;50.772;19.670;2023-07-13T12:09:33;98893.09;;;15.84
22269;BMP280;11303;50.772;19.670;2023-07-13T12:11:40;98882.59;;;15.91
22269;BMP280;11303;50.772;19.670;2023-07-13T12:13:43;98866.91;;;15.95
22269;BMP280;11303;50.772;19.670;2023-07-13T12:15:46;98853.38;;;15.82